Time;durP1;ratioP1;P1;durP2;ratioP2;P2;SDS_P1;SDS_P2;PMS_P1;PMS_P2;Temp;Humidity;BMP_temperature;BMP_pressure;BME280_temperature;BME280_humidity;BME280_pressure;Samples;Min_cycle;Max_cycle;Signal;HPM_P1;HPM_P2
2022/07/04 00:02:04;;;;;;;0.00;0.00;;;;;;;;;;4995840;28;20100;-60
2022/07/04 00:04:31;;;;;;;0.03;0.03;;;;;;;;;;5001782;28;20029;-61
2022/07/04 00:06:57;;;;;;;0.17;0.10;;;;;;;;;;5009949;28;20052;-60
2022/07/04 00:09:24;;;;;;;0.13;0.00;;;;;;;;;;5010314;28;20018;-60
2022/07/04 00:11:51;;;;;;;1.97;0.30;;;;;;;;;;5010156;28;20085;-60
2022/07/04 00:14:17;;;;;;;0.10;0.10;;;;;;;;;;5010282;28;20034;-60
2022/07/04 00:16:44;;;;;;;0.10;0.00;;;;;;;;;;5014625;28;20042;-60
2022/07/04 00:19:11;;;;;;;0.00;0.00;;;;;;;;;;5014243;28;20101;-60
2022/07/04 00:21:37;;;;;;;0.40;0.07;;;;;;;;;;5014697;28;20034;-60
2022/07/04 00:24:04;;;;;;;0.73;0.40;;;;;;;;;;5014469;28;20038;-60
2022/07/04 00:26:31;;;;;;;0.00;0.00;;;;;;;;;;5013446;28;20025;-60
2022/07/04 00:28:57;;;;;;;0.40;0.30;;;;;;;;;;5008330;28;20610;-60
2022/07/04 00:31:24;;;;;;;0.43;0.10;;;;;;;;;;5008894;28;20049;-61
2022/07/04 00:33:51;;;;;;;0.17;0.07;;;;;;;;;;5008488;28;20109;-60
2022/07/04 00:36:17;;;;;;;0.43;0.23;;;;;;;;;;5006852;28;20091;-61
2022/07/04 00:38:44;;;;;;;0.00;0.00;;;;;;;;;;5014989;28;20018;-61
2022/07/04 00:41:11;;;;;;;0.10;0.10;;;;;;;;;;5014485;28;20118;-61
2022/07/04 00:43:37;;;;;;;0.10;0.10;;;;;;;;;;5014984;28;20022;-61
2022/07/04 00:46:05;;;;;;;0.00;0.00;;;;;;;;;;5014376;28;20391;-61
2022/07/04 00:48:32;;;;;;;0.00;0.00;;;;;;;;;;5014297;28;20084;-61
2022/07/04 00:50:59;;;;;;;0.20;0.07;;;;;;;;;;5009792;28;20061;-61
2022/07/04 00:53:26;;;;;;;0.20;0.13;;;;;;;;;;5009658;28;20026;-62
2022/07/04 00:55:54;;;;;;;0.20;0.10;;;;;;;;;;5009543;28;20037;-60
2022/07/04 00:58:22;;;;;;;0.27;0.23;;;;;;;;;;5007602;28;20041;-61
2022/07/04 01:00:49;;;;;;;0.20;0.20;;;;;;;;;;5013980;28;20021;-61
2022/07/04 01:03:16;;;;;;;0.80;0.30;;;;;;;;;;5013563;28;20034;-61
2022/07/04 01:05:43;;;;;;;0.30;0.23;;;;;;;;;;5014204;28;20061;-60
2022/07/04 01:08:10;;;;;;;0.23;0.20;;;;;;;;;;5014011;28;20080;-59
2022/07/04 01:10:37;;;;;;;0.20;0.20;;;;;;;;;;5014166;28;20026;-60
2022/07/04 01:13:04;;;;;;;1.87;0.83;;;;;;;;;;5009534;28;20037;-60
2022/07/04 01:15:30;;;;;;;0.80;0.33;;;;;;;;;;5008734;28;20034;-63
2022/07/04 01:17:57;;;;;;;0.20;0.20;;;;;;;;;;5009097;28;20087;-62
2022/07/04 01:20:24;;;;;;;0.00;0.00;;;;;;;;;;5008983;28;20037;-60
2022/07/04 01:22:50;;;;;;;2.17;0.20;;;;;;;;;;5012874;28;20033;-61
2022/07/04 01:25:17;;;;;;;0.53;0.40;;;;;;;;;;5013940;28;20030;-61
2022/07/04 01:27:44;;;;;;;1.03;0.60;;;;;;;;;;5013897;28;20026;-60
2022/07/04 01:30:11;;;;;;;0.10;0.10;;;;;;;;;;5013629;28;20461;-60
2022/07/04 01:32:38;;;;;;;0.40;0.30;;;;;;;;;;5013381;28;20065;-60
2022/07/04 01:35:05;;;;;;;1.03;0.50;;;;;;;;;;5009728;28;20052;-62
2022/07/04 01:37:31;;;;;;;1.57;0.90;;;;;;;;;;5008796;28;20042;-61
2022/07/04 01:39:58;;;;;;;1.37;0.33;;;;;;;;;;5008762;28;20038;-61
2022/07/04 01:42:25;;;;;;;0.10;0.10;;;;;;;;;;5008726;28;20033;-61
2022/07/04 01:44:51;;;;;;;9.90;1.23;;;;;;;;;;5011717;28;20018;-60
2022/07/04 01:47:18;;;;;;;0.63;0.17;;;;;;;;;;5013454;28;20033;-60
2022/07/04 01:49:45;;;;;;;4.63;0.97;;;;;;;;;;5013488;28;20026;-60
2022/07/04 01:52:11;;;;;;;0.67;0.40;;;;;;;;;;5012940;28;20084;-61
2022/07/04 01:54:38;;;;;;;0.20;0.20;;;;;;;;;;5013340;28;20025;-60
2022/07/04 01:57:05;;;;;;;1.57;0.40;;;;;;;;;;5009874;28;20042;-61
2022/07/04 02:02:17;;;;;;;1.90;0.38;;;;;;;;;;5008751;28;20048;-59
2022/07/04 02:04:44;;;;;;;0.77;0.43;;;;;;;;;;5007752;28;20370;-60
2022/07/04 02:07:10;;;;;;;0.63;0.50;;;;;;;;;;5011493;28;20061;-61
2022/07/04 02:09:39;;;;;;;2.30;0.70;;;;;;;;;;5012956;28;20108;-60
2022/07/04 02:14:51;;;;;;;0.32;0.32;;;;;;;;;;5012574;28;20059;-61
2022/07/04 02:17:18;;;;;;;1.93;0.80;;;;;;;;;;5012946;28;20030;-60
2022/07/04 02:19:45;;;;;;;0.47;0.20;;;;;;;;;;5008872;28;20030;-60
2022/07/04 02:22:11;;;;;;;2.53;0.50;;;;;;;;;;5007779;28;20033;-60
2022/07/04 02:24:38;;;;;;;0.77;0.50;;;;;;;;;;5007783;28;20021;-60
2022/07/04 02:27:05;;;;;;;1.03;0.87;;;;;;;;;;5007637;28;20080;-60
2022/07/04 02:29:31;;;;;;;1.03;0.23;;;;;;;;;;5011093;28;20026;-60
2022/07/04 02:31:58;;;;;;;3.70;1.10;;;;;;;;;;5012557;28;20377;-61
2022/07/04 02:34:25;;;;;;;0.30;0.30;;;;;;;;;;5012536;28;20034;-61
2022/07/04 02:36:51;;;;;;;0.30;0.10;;;;;;;;;;5012354;28;20154;-60
2022/07/04 02:39:18;;;;;;;0.10;0.10;;;;;;;;;;5012728;28;20033;-61
2022/07/04 02:41:46;;;;;;;0.70;0.37;;;;;;;;;;5008888;28;20029;-60
2022/07/04 02:44:12;;;;;;;0.43;0.30;;;;;;;;;;5007523;28;20092;-61
2022/07/04 02:46:39;;;;;;;0.77;0.60;;;;;;;;;;5007341;28;20037;-60
2022/07/04 02:49:06;;;;;;;0.23;0.17;;;;;;;;;;5007440;28;20428;-60
2022/07/04 02:51:32;;;;;;;0.20;0.20;;;;;;;;;;5010188;28;20026;-61
2022/07/04 02:53:59;;;;;;;1.40;0.53;;;;;;;;;;5012625;28;20497;-60
2022/07/04 02:56:26;;;;;;;0.73;0.30;;;;;;;;;;5012154;28;20045;-61
2022/07/04 02:58:53;;;;;;;0.33;0.30;;;;;;;;;;5012549;28;20030;-60
2022/07/04 03:01:19;;;;;;;0.53;0.20;;;;;;;;;;5012535;28;20541;-60
2022/07/04 03:03:47;;;;;;;2.43;0.53;;;;;;;;;;5009216;28;20496;-60
2022/07/04 03:06:14;;;;;;;1.77;0.57;;;;;;;;;;5007114;28;20141;-60
2022/07/04 03:08:40;;;;;;;1.60;1.00;;;;;;;;;;5006936;28;20373;-60
2022/07/04 03:11:07;;;;;;;0.33;0.23;;;;;;;;;;5006667;28;20532;-61
2022/07/04 03:13:34;;;;;;;5.20;0.77;;;;;;;;;;5008488;28;20029;-60
2022/07/04 03:16:01;;;;;;;1.43;0.63;;;;;;;;;;5011683;28;20022;-60
2022/07/04 03:18:27;;;;;;;0.60;0.20;;;;;;;;;;5012472;28;20037;-60
2022/07/04 03:20:54;;;;;;;0.13;0.13;;;;;;;;;;5012186;28;20053;-60
2022/07/04 03:23:21;;;;;;;0.13;0.13;;;;;;;;;;5012984;28;20045;-61
2022/07/04 03:25:47;;;;;;;1.50;0.57;;;;;;;;;;5013438;28;20040;-60
2022/07/04 03:28:14;;;;;;;2.80;0.30;;;;;;;;;;5010801;28;20117;-60
2022/07/04 03:30:41;;;;;;;0.50;0.37;;;;;;;;;;5010756;28;20030;-60
2022/07/04 03:33:08;;;;;;;0.63;0.30;;;;;;;;;;5010893;28;20074;-60
2022/07/04 03:35:34;;;;;;;7.33;0.50;;;;;;;;;;5012151;28;20048;-60
2022/07/04 03:38:01;;;;;;;0.70;0.30;;;;;;;;;;5015672;28;20040;-60
2022/07/04 03:40:30;;;;;;;0.00;0.00;;;;;;;;;;5015214;28;20109;-60
2022/07/04 03:42:58;;;;;;;0.40;0.37;;;;;;;;;;5015792;28;20384;-60
2022/07/04 03:45:25;;;;;;;1.17;0.33;;;;;;;;;;5015748;28;20385;-60
2022/07/04 03:47:51;;;;;;;0.50;0.47;;;;;;;;;;5013313;28;20029;-61
2022/07/04 03:50:18;;;;;;;0.30;0.30;;;;;;;;;;5010388;28;20050;-60
2022/07/04 03:52:45;;;;;;;0.57;0.50;;;;;;;;;;5010361;28;20108;-60
2022/07/04 03:55:11;;;;;;;0.77;0.30;;;;;;;;;;5010156;28;20034;-61
2022/07/04 03:57:39;;;;;;;1.10;0.77;;;;;;;;;;5010825;28;20026;-60
2022/07/04 04:00:07;;;;;;;0.53;0.40;;;;;;;;;;5015273;28;20030;-62
2022/07/04 04:02:34;;;;;;;0.30;0.30;;;;;;;;;;4995763;28;20038;-60
2022/07/04 04:07:46;;;;;;;0.75;0.30;;;;;;;;;;4995929;28;20101;-60
2022/07/04 04:10:12;;;;;;;0.40;0.37;;;;;;;;;;4993110;28;20033;-61
2022/07/04 04:12:39;;;;;;;3.03;1.03;;;;;;;;;;4990230;28;20121;-60
2022/07/04 04:15:06;;;;;;;0.80;0.70;;;;;;;;;;4990159;28;20034;-60
2022/07/04 04:17:33;;;;;;;2.77;0.50;;;;;;;;;;4990447;28;21436;-60
2022/07/04 04:19:59;;;;;;;0.40;0.40;;;;;;;;;;5003868;28;20026;-60
2022/07/04 04:22:28;;;;;;;0.90;0.27;;;;;;;;;;5015021;28;20022;-60
2022/07/04 04:24:55;;;;;;;1.53;0.70;;;;;;;;;;5014669;28;20029;-60
2022/07/04 04:27:21;;;;;;;0.87;0.57;;;;;;;;;;5014252;28;20061;-60
2022/07/04 04:29:48;;;;;;;1.67;0.87;;;;;;;;;;5014813;28;20620;-60
2022/07/04 04:32:15;;;;;;;0.80;0.60;;;;;;;;;;5013053;28;20358;-61
2022/07/04 04:34:41;;;;;;;0.77;0.33;;;;;;;;;;5009036;28;20026;-60
2022/07/04 04:37:08;;;;;;;2.77;0.60;;;;;;;;;;5009532;28;20028;-60
2022/07/04 04:39:35;;;;;;;0.57;0.50;;;;;;;;;;5009563;28;20034;-60
2022/07/04 04:42:01;;;;;;;0.47;0.33;;;;;;;;;;5010074;28;20080;-60
2022/07/04 04:44:28;;;;;;;0.57;0.37;;;;;;;;;;5014610;28;20022;-61
2022/07/04 04:46:54;;;;;;;1.00;0.53;;;;;;;;;;5014578;28;20380;-61
2022/07/04 04:49:21;;;;;;;0.50;0.27;;;;;;;;;;5014175;28;20057;-60
2022/07/04 04:51:48;;;;;;;0.20;0.20;;;;;;;;;;5014570;28;20033;-61
2022/07/04 04:54:15;;;;;;;0.40;0.30;;;;;;;;;;5013312;28;20067;-61
2022/07/04 04:56:41;;;;;;;4.87;1.17;;;;;;;;;;5009034;28;20440;-61
2022/07/04 04:59:09;;;;;;;1.90;0.33;;;;;;;;;;5008728;28;20536;-61
2022/07/04 05:01:36;;;;;;;0.40;0.27;;;;;;;;;;5008949;28;20594;-61
2022/07/04 05:04:03;;;;;;;0.23;0.17;;;;;;;;;;5009296;28;20038;-61
2022/07/04 05:06:30;;;;;;;2.70;0.73;;;;;;;;;;5014157;28;20026;-61
2022/07/04 05:08:56;;;;;;;1.00;0.50;;;;;;;;;;5014397;28;20021;-60
2022/07/04 05:11:23;;;;;;;0.97;0.50;;;;;;;;;;5013876;28;20023;-60
2022/07/04 05:13:49;;;;;;;0.27;0.27;;;;;;;;;;5014062;28;20034;-61
2022/07/04 05:16:16;;;;;;;1.13;0.60;;;;;;;;;;5012988;28;20025;-61
2022/07/04 05:18:43;;;;;;;0.83;0.53;;;;;;;;;;5008593;28;20073;-60
2022/07/04 05:21:09;;;;;;;0.60;0.30;;;;;;;;;;5008558;28;20018;-61
2022/07/04 05:23:36;;;;;;;1.60;0.73;;;;;;;;;;5008740;28;20372;-60
2022/07/04 05:26:03;;;;;;;0.57;0.33;;;;;;;;;;5008570;28;20466;-61
2022/07/04 05:28:29;;;;;;;2.47;0.50;;;;;;;;;;5013779;28;20466;-60
2022/07/04 05:30:56;;;;;;;4.23;0.63;;;;;;;;;;5013841;28;20384;-60
2022/07/04 05:33:23;;;;;;;0.57;0.30;;;;;;;;;;5013007;28;20053;-60
2022/07/04 05:35:49;;;;;;;0.33;0.30;;;;;;;;;;5013386;28;20084;-60
2022/07/04 05:38:16;;;;;;;1.03;0.73;;;;;;;;;;5013590;28;20018;-60
2022/07/04 05:40:43;;;;;;;4.10;0.87;;;;;;;;;;5008374;28;20081;-60
2022/07/04 05:43:11;;;;;;;0.60;0.43;;;;;;;;;;5008325;28;20088;-60
2022/07/04 05:45:38;;;;;;;0.37;0.20;;;;;;;;;;5007572;28;20362;-60
2022/07/04 05:48:05;;;;;;;0.40;0.30;;;;;;;;;;5008109;28;20416;-60
2022/07/04 05:50:31;;;;;;;0.30;0.30;;;;;;;;;;5012432;28;20030;-60
2022/07/04 05:52:58;;;;;;;1.53;1.00;;;;;;;;;;5013416;28;20102;-60
2022/07/04 05:55:25;;;;;;;0.47;0.40;;;;;;;;;;5012756;28;20053;-60
2022/07/04 05:57:53;;;;;;;0.43;0.30;;;;;;;;;;5013387;28;20084;-60
2022/07/04 06:00:19;;;;;;;0.97;0.50;;;;;;;;;;5013245;28;20030;-60
2022/07/04 06:02:46;;;;;;;0.60;0.30;;;;;;;;;;5008297;28;20041;-60
2022/07/04 06:05:13;;;;;;;0.73;0.50;;;;;;;;;;5007831;28;20514;-60
2022/07/04 06:07:39;;;;;;;1.43;0.63;;;;;;;;;;5007800;28;20064;-60
2022/07/04 06:10:06;;;;;;;0.30;0.27;;;;;;;;;;5007835;28;20072;-60
2022/07/04 06:12:33;;;;;;;2.67;0.77;;;;;;;;;;5011522;28;20117;-61
2022/07/04 06:15:00;;;;;;;1.60;0.63;;;;;;;;;;5012978;28;20032;-60
2022/07/04 06:17:27;;;;;;;0.30;0.30;;;;;;;;;;5011874;28;20037;-60
2022/07/04 06:19:54;;;;;;;1.17;0.40;;;;;;;;;;5012984;28;20473;-60
2022/07/04 06:22:21;;;;;;;0.97;0.60;;;;;;;;;;5012578;28;20026;-60
2022/07/04 06:24:47;;;;;;;0.73;0.27;;;;;;;;;;5008432;28;20081;-60
2022/07/04 06:27:14;;;;;;;0.40;0.40;;;;;;;;;;5007603;28;20057;-60
2022/07/04 06:29:41;;;;;;;0.60;0.30;;;;;;;;;;5007469;28;20428;-60
2022/07/04 06:32:08;;;;;;;0.40;0.40;;;;;;;;;;5007475;28;20093;-60
2022/07/04 06:37:19;;;;;;;1.40;0.50;;;;;;;;;;5012680;28;20100;-60
2022/07/04 06:39:46;;;;;;;1.70;0.60;;;;;;;;;;5012347;28;20061;-60
2022/07/04 06:42:12;;;;;;;0.77;0.60;;;;;;;;;;5012794;28;20029;-60
2022/07/04 06:44:39;;;;;;;0.33;0.30;;;;;;;;;;5012627;28;20080;-60
2022/07/04 06:47:06;;;;;;;0.30;0.27;;;;;;;;;;5008202;28;20166;-60
2022/07/04 06:49:33;;;;;;;1.30;0.37;;;;;;;;;;5007374;28;20096;-60
2022/07/04 06:52:00;;;;;;;1.00;0.47;;;;;;;;;;5006976;28;20428;-60
2022/07/04 06:54:27;;;;;;;0.30;0.30;;;;;;;;;;5007219;28;20541;-59
2022/07/04 06:56:53;;;;;;;5.73;0.90;;;;;;;;;;5011519;28;20045;-60
2022/07/04 06:59:20;;;;;;;1.70;0.77;;;;;;;;;;5019258;28;20029;-60
2022/07/04 07:01:47;;;;;;;1.63;0.60;;;;;;;;;;5018786;28;20091;-60
2022/07/04 07:04:13;;;;;;;1.40;0.63;;;;;;;;;;5018970;28;20026;-60
2022/07/04 07:06:40;;;;;;;0.40;0.20;;;;;;;;;;5018847;28;20022;-60
2022/07/04 07:09:07;;;;;;;0.17;0.17;;;;;;;;;;5014535;28;20168;-60
2022/07/04 07:11:33;;;;;;;0.67;0.30;;;;;;;;;;5013751;28;20029;-60
2022/07/04 07:14:00;;;;;;;0.60;0.17;;;;;;;;;;5013367;28;20046;-60
2022/07/04 07:16:27;;;;;;;0.67;0.43;;;;;;;;;;5013625;28;20038;-60
2022/07/04 07:18:53;;;;;;;0.60;0.40;;;;;;;;;;5016520;28;20026;-60
2022/07/04 07:21:20;;;;;;;4.07;0.53;;;;;;;;;;5018640;28;20025;-60
2022/07/04 07:23:47;;;;;;;2.97;0.90;;;;;;;;;;5018453;28;20030;-60
2022/07/04 07:26:13;;;;;;;0.47;0.30;;;;;;;;;;5018144;28;20484;-60
2022/07/04 07:28:40;;;;;;;0.30;0.30;;;;;;;;;;5018988;28;20507;-60
2022/07/04 07:31:07;;;;;;;0.17;0.17;;;;;;;;;;5015192;28;20026;-60
2022/07/04 07:33:33;;;;;;;0.73;0.40;;;;;;;;;;5013611;28;20053;-60
2022/07/04 07:36:00;;;;;;;0.53;0.30;;;;;;;;;;5013269;28;20038;-60
2022/07/04 07:38:27;;;;;;;0.60;0.50;;;;;;;;;;5013362;28;20077;-60
2022/07/04 07:40:53;;;;;;;0.07;0.07;;;;;;;;;;5015924;28;20025;-60
2022/07/04 07:43:20;;;;;;;0.47;0.30;;;;;;;;;;5018165;28;20032;-60
2022/07/04 07:45:47;;;;;;;1.13;0.40;;;;;;;;;;5018061;28;20049;-60
2022/07/04 07:48:14;;;;;;;1.00;0.67;;;;;;;;;;5018205;28;20417;-60
2022/07/04 07:50:40;;;;;;;0.20;0.17;;;;;;;;;;5018419;28;20030;-59
2022/07/04 07:53:07;;;;;;;0.47;0.33;;;;;;;;;;5015721;28;20113;-60
2022/07/04 07:55:34;;;;;;;0.10;0.10;;;;;;;;;;5012882;28;20045;-60
2022/07/04 07:58:01;;;;;;;0.20;0.20;;;;;;;;;;5013115;28;20035;-59
2022/07/04 08:00:28;;;;;;;0.50;0.30;;;;;;;;;;5013020;28;20036;-60
2022/07/04 08:05:40;;;;;;;0.40;0.40;;;;;;;;;;5018543;28;20474;-60
2022/07/04 08:08:09;;;;;;;2.23;0.67;;;;;;;;;;5018071;28;20481;-60
2022/07/04 08:10:37;;;;;;;0.70;0.40;;;;;;;;;;5013942;28;20030;-60
2022/07/04 08:13:04;;;;;;;0.33;0.30;;;;;;;;;;5015069;28;20029;-60
2022/07/04 08:15:31;;;;;;;0.40;0.30;;;;;;;;;;5011825;28;20457;-60
2022/07/04 08:17:58;;;;;;;0.80;0.57;;;;;;;;;;5009883;28;20034;-60
2022/07/04 08:20:25;;;;;;;0.47;0.40;;;;;;;;;;5009725;28;20149;-60
2022/07/04 08:22:51;;;;;;;0.63;0.30;;;;;;;;;;5009842;28;20033;-60
2022/07/04 08:25:18;;;;;;;0.20;0.20;;;;;;;;;;5012248;28;20018;-60
2022/07/04 08:27:45;;;;;;;1.10;0.47;;;;;;;;;;5014313;28;20041;-60
2022/07/04 08:30:11;;;;;;;0.20;0.20;;;;;;;;;;5015030;28;20034;-60
2022/07/04 08:32:38;;;;;;;0.20;0.20;;;;;;;;;;5014226;28;20033;-59
2022/07/04 08:35:05;;;;;;;4.03;0.73;;;;;;;;;;5014580;28;20366;-61
2022/07/04 08:37:32;;;;;;;3.90;0.80;;;;;;;;;;5012143;28;20046;-60
2022/07/04 08:39:59;;;;;;;0.37;0.33;;;;;;;;;;5008967;28;20517;-60
2022/07/04 08:42:28;;;;;;;9.53;1.00;;;;;;;;;;5009105;28;20030;-60
2022/07/04 08:44:55;;;;;;;0.30;0.30;;;;;;;;;;4989632;28;20421;-60
2022/07/04 08:47:23;;;;;;;0.30;0.30;;;;;;;;;;4997508;28;20042;-60
2022/07/04 08:49:55;;;;;;;2.10;1.30;;;;;;;;;;5014725;28;20026;-60
2022/07/04 08:52:28;;;;;;;1.03;0.53;;;;;;;;;;5014607;28;20038;-59
2022/07/04 09:00:26;;;;;;;0.17;0.17;;;;;;;;;;5010423;28;20437;-60
2022/07/04 09:02:52;;;;;;;0.30;0.30;;;;;;;;;;5008883;28;20493;-60
2022/07/04 09:05:19;;;;;;;0.37;0.27;;;;;;;;;;5008389;28;20030;-60
2022/07/04 09:07:46;;;;;;;2.87;0.67;;;;;;;;;;5008956;28;20029;-60
2022/07/04 09:10:14;;;;;;;0.77;0.50;;;;;;;;;;5012155;28;20481;-60
2022/07/04 09:12:41;;;;;;;0.03;0.03;;;;;;;;;;5014125;28;20022;-60
2022/07/04 09:15:08;;;;;;;0.50;0.50;;;;;;;;;;5014001;28;20057;-60
2022/07/04 09:17:35;;;;;;;0.20;0.20;;;;;;;;;;5014058;28;20080;-60
2022/07/04 09:20:31;;;;;;;0.60;0.50;;;;;;;;;;5013154;28;20034;-60
2022/07/04 09:22:57;;;;;;;6.90;0.67;;;;;;;;;;4992473;28;20034;-60
2022/07/04 09:25:25;;;;;;;0.60;0.50;;;;;;;;;;5008613;28;20420;-60
2022/07/04 09:27:53;;;;;;;0.20;0.20;;;;;;;;;;5008496;28;20100;-60
2022/07/04 09:30:21;;;;;;;1.37;0.87;;;;;;;;;;5008119;28;20026;-60
2022/07/04 09:32:50;;;;;;;0.63;0.53;;;;;;;;;;5012383;28;20036;-60
2022/07/04 09:35:16;;;;;;;0.67;0.60;;;;;;;;;;5013753;28;20100;-60
2022/07/04 09:37:46;;;;;;;0.60;0.47;;;;;;;;;;5013609;28;20362;-60
2022/07/04 09:40:23;;;;;;;0.53;0.27;;;;;;;;;;5013620;28;20053;-60
2022/07/04 09:42:50;;;;;;;0.73;0.30;;;;;;;;;;5013188;28;20049;-61
2022/07/04 09:45:17;;;;;;;0.60;0.53;;;;;;;;;;5008896;28;20025;-60
2022/07/04 09:47:45;;;;;;;0.40;0.40;;;;;;;;;;5008425;28;20030;-60
2022/07/04 09:50:15;;;;;;;0.33;0.30;;;;;;;;;;5008297;28;20049;-60
2022/07/04 09:52:52;;;;;;;0.23;0.23;;;;;;;;;;5007950;28;20018;-60
2022/07/04 09:55:25;;;;;;;1.33;0.77;;;;;;;;;;5012175;28;20034;-59
2022/07/04 09:57:52;;;;;;;0.80;0.63;;;;;;;;;;5013315;28;20396;-60
2022/07/04 10:00:20;;;;;;;5.30;0.80;;;;;;;;;;5013323;28;20030;-60
2022/07/04 10:02:47;;;;;;;0.20;0.20;;;;;;;;;;5012796;28;20049;-60
2022/07/04 10:05:18;;;;;;;1.17;0.70;;;;;;;;;;5013278;28;20021;-60
2022/07/04 10:07:47;;;;;;;2.90;0.63;;;;;;;;;;5008020;28;20091;-60
2022/07/04 10:10:33;;;;;;;1.97;0.77;;;;;;;;;;5007611;28;20061;-60
2022/07/04 10:13:02;;;;;;;1.33;0.77;;;;;;;;;;5007781;28;20030;-60
2022/07/04 10:15:28;;;;;;;3.10;1.10;;;;;;;;;;5007643;28;20547;-61
2022/07/04 10:17:55;;;;;;;2.97;0.83;;;;;;;;;;5012964;28;20489;-60
2022/07/04 10:20:22;;;;;;;0.30;0.27;;;;;;;;;;5012547;28;20489;-59
2022/07/04 10:22:49;;;;;;;3.03;0.57;;;;;;;;;;5012967;28;20026;-61
2022/07/04 10:25:16;;;;;;;0.23;0.23;;;;;;;;;;5011922;28;20022;-60
2022/07/04 10:27:42;;;;;;;0.47;0.30;;;;;;;;;;5012573;28;20026;-60
2022/07/04 10:30:12;;;;;;;1.50;0.60;;;;;;;;;;5007576;28;20033;-60
2022/07/04 10:32:39;;;;;;;0.77;0.63;;;;;;;;;;5007065;28;20018;-59
2022/07/04 10:35:06;;;;;;;0.33;0.33;;;;;;;;;;5007500;28;20048;-59
2022/07/04 10:37:51;;;;;;;0.50;0.20;;;;;;;;;;5006978;28;20037;-59
2022/07/04 10:40:36;;;;;;;1.05;0.77;;;;;;;;;;5012519;28;20029;-60
2022/07/04 10:43:02;;;;;;;1.30;0.60;;;;;;;;;;5012948;28;20543;-59
2022/07/04 10:45:32;;;;;;;0.10;0.10;;;;;;;;;;5012151;28;20376;-59
2022/07/04 10:47:59;;;;;;;0.23;0.17;;;;;;;;;;5012474;28;20030;-59
2022/07/04 10:50:29;;;;;;;0.40;0.30;;;;;;;;;;5011395;28;20025;-59
2022/07/04 10:53:16;;;;;;;0.57;0.40;;;;;;;;;;5007216;28;20069;-59
2022/07/04 10:55:44;;;;;;;0.00;0.00;;;;;;;;;;5006961;28;20061;-59
2022/07/04 10:58:10;;;;;;;0.00;0.00;;;;;;;;;;5007240;28;20091;-59
2022/07/04 11:00:37;;;;;;;0.17;0.10;;;;;;;;;;5008804;28;20487;-59
2022/07/04 11:03:19;;;;;;;0.93;0.53;;;;;;;;;;5011638;28;20034;-59
2022/07/04 11:05:49;;;;;;;0.37;0.30;;;;;;;;;;5012440;28;20061;-59
2022/07/04 11:08:16;;;;;;;0.37;0.17;;;;;;;;;;5011950;28;20393;-59
2022/07/04 11:10:42;;;;;;;0.40;0.20;;;;;;;;;;5012033;28;20496;-59
2022/07/04 11:13:15;;;;;;;0.10;0.10;;;;;;;;;;5009583;28;20165;-59
2022/07/04 11:15:45;;;;;;;0.40;0.17;;;;;;;;;;5006910;28;20536;-59
2022/07/04 11:18:13;;;;;;;0.10;0.10;;;;;;;;;;5006981;28;20448;-59
2022/07/04 11:20:47;;;;;;;0.20;0.20;;;;;;;;;;5006810;28;20022;-59
2022/07/04 11:23:15;;;;;;;0.10;0.10;;;;;;;;;;5008972;28;20044;-59
2022/07/04 11:25:45;;;;;;;0.10;0.10;;;;;;;;;;5012490;28;20029;-59
2022/07/04 11:28:39;;;;;;;0.20;0.10;;;;;;;;;;5012038;28;20036;-60
2022/07/04 11:31:06;;;;;;;0.00;0.00;;;;;;;;;;5009220;28;20073;-60
2022/07/04 11:33:34;;;;;;;0.10;0.10;;;;;;;;;;5012331;28;20347;-59
2022/07/04 11:36:07;;;;;;;0.10;0.10;;;;;;;;;;5007995;28;20026;-59
2022/07/04 11:38:44;;;;;;;0.10;0.10;;;;;;;;;;5006910;28;20037;-60
2022/07/04 11:46:48;;;;;;;9.07;3.83;;;;;;;;;;4992457;28;20500;-60
2022/07/04 11:49:15;;;;;;;1.70;1.00;;;;;;;;;;5015285;28;20029;-59
2022/07/04 11:51:43;;;;;;;0.07;0.07;;;;;;;;;;5015614;28;20029;-60
2022/07/04 11:54:10;;;;;;;0.10;0.10;;;;;;;;;;5015556;28;20068;-60
2022/07/04 11:56:36;;;;;;;0.10;0.10;;;;;;;;;;5015123;28;20073;-59
2022/07/04 11:59:10;;;;;;;0.23;0.10;;;;;;;;;;5010037;28;20030;-59
2022/07/04 12:01:37;;;;;;;0.77;0.20;;;;;;;;;;5010196;28;20413;-59
2022/07/04 12:04:15;;;;;;;0.40;0.20;;;;;;;;;;5009837;28;20117;-59
2022/07/04 12:06:41;;;;;;;0.10;0.10;;;;;;;;;;5010206;28;20072;-59
2022/07/04 12:09:08;;;;;;;0.10;0.10;;;;;;;;;;5014873;28;20103;-60
2022/07/04 12:11:53;;;;;;;0.67;0.40;;;;;;;;;;5015125;28;20026;-59
2022/07/04 12:14:20;;;;;;;0.10;0.10;;;;;;;;;;5015105;28;20053;-59
2022/07/04 12:16:47;;;;;;;1.80;0.60;;;;;;;;;;5015301;28;20030;-59
2022/07/04 12:19:14;;;;;;;0.07;0.07;;;;;;;;;;5013897;28;20034;-59
2022/07/04 12:21:43;;;;;;;1.00;0.70;;;;;;;;;;5009942;28;20521;-59
2022/07/04 12:24:09;;;;;;;0.30;0.30;;;;;;;;;;5009807;28;20030;-60
2022/07/04 12:26:46;;;;;;;0.30;0.30;;;;;;;;;;5009774;28;20029;-59
2022/07/04 12:29:20;;;;;;;1.73;1.37;;;;;;;;;;5010375;28;20048;-60
2022/07/04 12:31:51;;;;;;;1.53;1.00;;;;;;;;;;5015090;28;20381;-59
2022/07/04 12:34:18;;;;;;;1.57;0.77;;;;;;;;;;5015115;28;20026;-59
2022/07/04 12:36:51;;;;;;;0.20;0.20;;;;;;;;;;5015118;28;20146;-59
2022/07/04 12:39:34;;;;;;;1.60;0.67;;;;;;;;;;5014342;28;20429;-59
2022/07/04 12:42:19;;;;;;;0.30;0.30;;;;;;;;;;5011806;28;20049;-60
2022/07/04 12:44:51;;;;;;;0.30;0.30;;;;;;;;;;5009467;28;20032;-59
2022/07/04 12:47:18;;;;;;;0.73;0.50;;;;;;;;;;5009092;28;20354;-59
2022/07/04 12:49:46;;;;;;;0.80;0.30;;;;;;;;;;5009505;28;20084;-59
2022/07/04 12:52:18;;;;;;;2.67;0.77;;;;;;;;;;5011831;28;20426;-59
2022/07/04 12:54:46;;;;;;;0.30;0.30;;;;;;;;;;5014340;28;20075;-60
2022/07/04 12:57:14;;;;;;;0.63;0.40;;;;;;;;;;5014411;28;20501;-59
2022/07/04 12:59:41;;;;;;;2.93;1.30;;;;;;;;;;5014052;28;20026;-59
2022/07/04 13:02:10;;;;;;;0.60;0.40;;;;;;;;;;5013954;28;20101;-59
2022/07/04 13:04:37;;;;;;;0.87;0.40;;;;;;;;;;5010997;28;20029;-59
2022/07/04 13:07:15;;;;;;;0.10;0.10;;;;;;;;;;5009123;28;20289;-60
2022/07/04 13:09:46;;;;;;;0.07;0.07;;;;;;;;;;5008781;28;20107;-60
2022/07/04 13:12:26;;;;;;;0.13;0.13;;;;;;;;;;5008391;28;20026;-60
2022/07/04 13:14:53;;;;;;;0.83;0.50;;;;;;;;;;4993085;28;20373;-59
2022/07/04 13:17:20;;;;;;;0.10;0.10;;;;;;;;;;4994437;28;20137;-59
2022/07/04 13:19:47;;;;;;;1.33;0.57;;;;;;;;;;4994104;28;20045;-59
2022/07/04 13:22:14;;;;;;;0.73;0.57;;;;;;;;;;4994449;28;20027;-59
2022/07/04 13:24:41;;;;;;;1.17;0.77;;;;;;;;;;4994354;28;20105;-59
2022/07/04 13:27:07;;;;;;;2.70;1.13;;;;;;;;;;4990251;28;20355;-59
2022/07/04 13:29:34;;;;;;;1.10;0.77;;;;;;;;;;4989039;28;20030;-59
2022/07/04 13:32:01;;;;;;;0.30;0.30;;;;;;;;;;4989014;28;20038;-60
2022/07/04 13:34:28;;;;;;;0.57;0.50;;;;;;;;;;4991224;28;20023;-60
2022/07/04 13:36:55;;;;;;;0.67;0.67;;;;;;;;;;5011386;28;20061;-60
2022/07/04 13:39:23;;;;;;;0.57;0.37;;;;;;;;;;5013625;28;20053;-59
2022/07/04 13:41:49;;;;;;;1.30;0.50;;;;;;;;;;5013391;28;20030;-60
2022/07/04 13:44:16;;;;;;;0.63;0.30;;;;;;;;;;5013779;28;20017;-59
2022/07/04 13:46:43;;;;;;;10.50;1.03;;;;;;;;;;5013718;28;20029;-59
2022/07/04 13:49:11;;;;;;;5.07;0.33;;;;;;;;;;5009719;28;20030;-59
2022/07/04 13:51:40;;;;;;;4.57;0.67;;;;;;;;;;5008214;28;20392;-60
2022/07/04 13:54:07;;;;;;;1.43;0.60;;;;;;;;;;5007818;28;20393;-60
2022/07/04 13:56:34;;;;;;;0.50;0.50;;;;;;;;;;5007546;28;20121;-61
2022/07/04 13:59:02;;;;;;;0.60;0.50;;;;;;;;;;5010662;28;20482;-60
2022/07/04 14:01:28;;;;;;;0.80;0.60;;;;;;;;;;5013056;28;20534;-60
2022/07/04 14:03:55;;;;;;;0.87;0.73;;;;;;;;;;5013325;28;20014;-59
2022/07/04 14:06:22;;;;;;;0.00;0.00;;;;;;;;;;5012850;28;20026;-60
2022/07/04 14:08:48;;;;;;;3.83;0.60;;;;;;;;;;5012900;28;20026;-59
2022/07/04 14:11:15;;;;;;;0.00;0.00;;;;;;;;;;5009680;28;20378;-60
2022/07/04 14:13:42;;;;;;;0.97;0.43;;;;;;;;;;5007361;28;20029;-60
2022/07/04 14:16:08;;;;;;;1.00;0.63;;;;;;;;;;5007359;28;20041;-60
2022/07/04 14:18:35;;;;;;;0.50;0.50;;;;;;;;;;5007683;28;20112;-60
2022/07/04 14:21:02;;;;;;;0.50;0.40;;;;;;;;;;5010398;28;20489;-60
2022/07/04 14:23:40;;;;;;;1.17;0.87;;;;;;;;;;5012837;28;20033;-60
2022/07/04 14:26:12;;;;;;;0.47;0.33;;;;;;;;;;5012330;28;20534;-60
2022/07/04 14:28:39;;;;;;;1.73;1.00;;;;;;;;;;5012834;28;20076;-60
2022/07/04 14:31:05;;;;;;;0.40;0.40;;;;;;;;;;5012986;28;20018;-60
2022/07/04 14:33:33;;;;;;;1.60;1.00;;;;;;;;;;5009265;28;20022;-60
2022/07/04 14:36:00;;;;;;;0.83;0.73;;;;;;;;;;5007693;28;20112;-61
2022/07/04 14:38:27;;;;;;;0.33;0.20;;;;;;;;;;5007075;28;20022;-60
2022/07/04 14:40:53;;;;;;;0.50;0.37;;;;;;;;;;5006925;28;20029;-60
2022/07/04 14:43:20;;;;;;;1.37;0.63;;;;;;;;;;5010187;28;20022;-60
2022/07/04 14:45:47;;;;;;;3.33;0.53;;;;;;;;;;5012754;28;20026;-60
2022/07/04 14:48:17;;;;;;;0.30;0.30;;;;;;;;;;5012864;28;20365;-60
2022/07/04 14:50:43;;;;;;;0.87;0.30;;;;;;;;;;5012625;28;20076;-60
2022/07/04 14:53:10;;;;;;;0.37;0.30;;;;;;;;;;5012417;28;20103;-60
2022/07/04 14:55:37;;;;;;;0.20;0.20;;;;;;;;;;5009142;28;20041;-60
2022/07/04 14:58:03;;;;;;;1.47;0.80;;;;;;;;;;5007153;28;20030;-60
2022/07/04 15:00:30;;;;;;;0.60;0.40;;;;;;;;;;5006885;28;20148;-60
2022/07/04 15:02:57;;;;;;;0.50;0.30;;;;;;;;;;5006860;28;20037;-60
2022/07/04 15:05:23;;;;;;;2.77;1.07;;;;;;;;;;5009729;28;20075;-60
2022/07/04 15:07:50;;;;;;;0.47;0.30;;;;;;;;;;5012334;28;20057;-60
2022/07/04 15:10:17;;;;;;;0.90;0.70;;;;;;;;;;5012252;28;20112;-60
2022/07/04 15:12:44;;;;;;;0.60;0.40;;;;;;;;;;5011887;28;20026;-60